Main page
METAR-TAF:

METAR-TAF

Airports :

Oran Tafraoui Airport

Tafraoui, Algeria

latitude: 35-32-33N, longitude: 000-31-56W, elevation: 112 m

Current weather observation

The report was made 3 hours and 3 minutes ago, at 07:00 UTC
Wind 10 kt from the West/Southwest
Temperature 22°C
Humidity 100%
Pressure 1016 hPa
Visibility: 5000 m
Scattered clouds at a height of 1300 ft
Scattered clouds at a height of 2600 ft
mist

METAR: DAOL 230700Z 25010KT 5000 BR SCT013 SCT026 22/22 Q1016

Time: 11:03 (10:03 UTC)


TAF: missing

Weather observations and forecasts of more than 4000 airports (METAR and TAF reports).

The available stations are represented by yellow and red dots on the map.

Hover mouse over dot to see the name of the station.

Then click to see weather observations and forecasts.

To change the map : click on the green buttons with a black cross to zoom in, on the green button with a dash to zoom out, or on the green arrows for adjacent maps.


METAR-TAF: